createdAt,value
2023-05-05T04:00:27.552Z,99.90
2023-05-05T04:02:59.277Z,99.90
2023-05-05T04:05:30.987Z,99.90
2023-05-05T04:08:02.755Z,99.90
2023-05-05T04:10:34.436Z,99.90
2023-05-05T04:13:06.134Z,99.90
2023-05-05T04:15:43.680Z,99.90
2023-05-05T04:18:15.354Z,99.90
2023-05-05T04:20:47.152Z,99.90
2023-05-05T04:23:18.796Z,99.90
2023-05-05T04:25:50.476Z,99.90
2023-05-05T04:28:22.284Z,99.90
2023-05-05T04:30:55.349Z,99.90
2023-05-05T04:33:27.011Z,99.90
2023-05-05T04:35:58.649Z,99.90
2023-05-05T04:38:30.340Z,99.90
2023-05-05T04:41:04.695Z,99.90
2023-05-05T04:43:36.397Z,99.90
2023-05-05T04:46:09.436Z,99.90
2023-05-05T04:48:41.106Z,99.90
2023-05-05T04:51:12.789Z,99.90
2023-05-05T04:53:44.431Z,99.90
2023-05-05T04:56:16.134Z,99.90
2023-05-05T04:58:47.783Z,99.90
2023-05-05T05:01:20.834Z,99.90
2023-05-05T05:03:53.058Z,99.90
2023-05-05T05:06:24.763Z,99.90
2023-05-05T05:08:56.443Z,99.90
2023-05-05T05:11:28.087Z,99.90
2023-05-05T05:13:59.791Z,99.90
2023-05-05T05:16:32.838Z,99.90
2023-05-05T05:19:04.506Z,99.90
2023-05-05T05:21:36.229Z,99.90
2023-05-05T05:24:08.003Z,99.90
2023-05-05T05:26:39.667Z,99.90
2023-05-05T05:29:11.292Z,99.90
2023-05-05T05:31:44.365Z,99.90
2023-05-05T05:34:16.090Z,99.90
2023-05-05T05:36:47.739Z,99.90
2023-05-05T05:39:19.364Z,99.90
2023-05-05T05:41:51.018Z,99.90
2023-05-05T05:44:22.723Z,99.90
2023-05-05T05:46:55.861Z,99.90
2023-05-05T05:49:27.505Z,99.90
2023-05-05T05:51:59.148Z,99.90
2023-05-05T05:54:30.763Z,99.90
2023-05-05T05:57:02.423Z,99.90
2023-05-05T05:59:34.042Z,99.90
2023-05-05T06:02:07.090Z,99.90
2023-05-05T06:04:41.651Z,99.90
2023-05-05T06:07:13.770Z,99.90
2023-05-05T06:09:45.546Z,99.90
2023-05-05T06:12:17.193Z,99.90
2023-05-05T06:14:48.874Z,99.90
2023-05-05T06:19:54.610Z,99.90
2023-05-05T06:22:26.318Z,97.50
2023-05-05T06:30:01.995Z,95.90
2023-05-05T06:32:35.036Z,83.20
2023-05-05T06:40:12.231Z,27.90
2023-05-05T06:45:16.025Z,24.60
2023-05-05T06:47:49.095Z,27.00
2023-05-05T06:50:20.738Z,29.40
2023-05-05T06:52:52.390Z,30.50
2023-05-05T06:55:24.457Z,37.20
2023-05-05T06:57:56.119Z,40.00
2023-05-05T07:00:27.791Z,31.30
2023-05-05T07:03:00.837Z,31.60
2023-05-05T07:05:32.759Z,26.00
2023-05-05T07:08:04.437Z,24.10
2023-05-05T07:10:36.095Z,23.80
2023-05-05T07:13:07.794Z,24.10
2023-05-05T07:15:41.496Z,27.80
2023-05-05T07:18:14.656Z,27.50
2023-05-05T07:20:46.342Z,28.40
2023-05-05T07:23:17.988Z,28.50
2023-05-05T07:25:49.668Z,28.30
2023-05-05T07:28:21.298Z,28.00
2023-05-05T07:30:52.942Z,27.10
2023-05-05T07:33:25.980Z,26.80
2023-05-05T07:35:57.621Z,28.80
2023-05-05T07:38:29.246Z,30.20
2023-05-05T07:41:00.900Z,26.40
2023-05-05T07:43:32.602Z,25.00
2023-05-05T07:46:04.364Z,32.80
2023-05-05T07:48:37.622Z,31.10
2023-05-05T07:51:09.366Z,44.00
2023-05-05T07:53:41.088Z,62.90
2023-05-05T07:56:12.770Z,59.90
2023-05-05T07:58:44.397Z,42.10
2023-05-05T08:01:16.044Z,44.20
2023-05-05T08:03:49.076Z,32.80
2023-05-05T08:06:20.786Z,33.50
2023-05-05T08:08:52.484Z,36.00
2023-05-05T08:11:24.143Z,39.60
2023-05-05T08:13:55.781Z,32.90
2023-05-05T08:16:27.565Z,32.70
2023-05-05T08:19:00.611Z,32.00
2023-05-05T08:21:32.289Z,33.60
2023-05-05T08:24:04.199Z,29.10
2023-05-05T08:26:35.859Z,31.30
2023-05-05T08:29:07.489Z,27.50
2023-05-05T08:31:39.261Z,28.60
2023-05-05T08:34:12.270Z,27.20
2023-05-05T08:36:43.923Z,28.40
2023-05-05T08:39:15.555Z,28.00
2023-05-05T08:41:47.284Z,27.80
2023-05-05T08:44:18.906Z,30.00
2023-05-05T08:46:50.629Z,31.60
2023-05-05T08:49:23.637Z,35.30
2023-05-05T08:51:55.291Z,38.90
2023-05-05T08:54:27.168Z,32.90
2023-05-05T08:56:59.104Z,28.40
2023-05-05T08:59:30.745Z,21.90
2023-05-05T09:02:02.402Z,22.60
2023-05-05T09:04:35.965Z,20.50
2023-05-05T09:07:07.770Z,18.10
2023-05-05T09:09:39.417Z,18.60
2023-05-05T09:12:11.056Z,19.70
2023-05-05T09:14:42.700Z,21.60
2023-05-05T09:17:23.522Z,18.40
2023-05-05T09:20:04.186Z,17.80
2023-05-05T09:22:36.510Z,17.80
2023-05-05T09:25:10.052Z,19.10
2023-05-05T09:27:42.749Z,18.90
2023-05-05T09:30:15.601Z,16.80
2023-05-05T09:32:47.898Z,23.40
2023-05-05T09:35:21.484Z,24.70
2023-05-05T09:37:53.124Z,28.50
2023-05-05T09:40:24.780Z,23.90
2023-05-05T09:43:00.970Z,20.50
2023-05-05T09:45:32.756Z,16.50
2023-05-05T09:48:05.072Z,19.30
2023-05-05T09:50:43.986Z,15.10
2023-05-05T09:53:15.651Z,18.70
2023-05-05T09:55:56.358Z,17.00
2023-05-05T09:58:28.684Z,17.00
2023-05-05T10:01:00.534Z,17.50
2023-05-05T10:03:32.195Z,16.00
2023-05-05T10:06:05.508Z,14.50
2023-05-05T10:08:37.171Z,12.00
2023-05-05T10:11:08.833Z,13.90
2023-05-05T10:13:40.661Z,10.90
2023-05-05T10:16:12.410Z,11.70
2023-05-05T10:18:44.101Z,9.90
2023-05-05T10:21:17.924Z,9.40
2023-05-05T10:23:52.657Z,14.60
2023-05-05T10:26:24.392Z,18.40
2023-05-05T10:28:56.479Z,19.90
2023-05-05T10:31:29.691Z,18.60
2023-05-05T10:34:03.353Z,10.90
2023-05-05T10:36:37.030Z,9.90
2023-05-05T10:39:08.726Z,6.90
2023-05-05T10:41:40.441Z,9.10
2023-05-05T10:44:12.140Z,13.80
2023-05-05T10:46:43.959Z,18.10
2023-05-05T10:49:19.402Z,22.60
2023-05-05T10:51:54.673Z,23.70
2023-05-05T10:54:30.294Z,30.10
2023-05-05T10:57:02.131Z,35.10
2023-05-05T10:59:40.838Z,33.60
2023-05-05T11:02:22.508Z,34.80
2023-05-05T11:07:37.634Z,39.80
2023-05-05T11:10:10.251Z,46.40
2023-05-05T11:13:19.037Z,58.60
2023-05-05T11:15:51.672Z,67.10
2023-05-05T11:18:30.767Z,75.90
2023-05-05T11:21:07.151Z,85.70
2023-05-05T11:23:40.250Z,81.90
2023-05-05T11:26:12.103Z,90.50
2023-05-05T11:29:00.530Z,91.30
2023-05-05T11:31:32.479Z,92.80
2023-05-05T11:34:23.446Z,99.90
2023-05-05T11:36:57.528Z,99.90
2023-05-05T11:39:35.368Z,99.90
2023-05-05T11:42:22.720Z,99.90
2023-05-05T11:44:54.490Z,99.90
2023-05-05T11:47:32.543Z,99.90
2023-05-05T11:50:17.851Z,99.90
2023-05-05T11:52:49.543Z,99.90
2023-05-05T11:55:22.862Z,99.90
2023-05-05T11:57:54.592Z,99.90
2023-05-05T12:00:32.796Z,99.90
2023-05-05T12:03:04.642Z,99.90
2023-05-05T12:05:37.062Z,99.90
2023-05-05T12:08:08.864Z,99.90
2023-05-05T12:10:42.001Z,99.90
2023-05-05T12:13:20.006Z,99.90
2023-05-05T12:15:51.981Z,99.90
2023-05-05T12:18:23.758Z,99.90
2023-05-05T12:20:55.425Z,99.90
2023-05-05T12:23:27.161Z,99.90
2023-05-05T12:26:00.237Z,99.90
2023-05-05T12:28:43.457Z,99.90
2023-05-05T12:31:15.475Z,99.90
2023-05-05T12:33:47.510Z,99.90
2023-05-05T12:36:19.261Z,99.90
2023-05-05T12:38:50.998Z,99.90
2023-05-05T12:41:24.130Z,99.90
2023-05-05T12:43:55.934Z,99.90
2023-05-05T12:46:27.892Z,99.90
2023-05-05T12:49:00.134Z,99.90
2023-05-05T12:51:31.902Z,99.90
2023-05-05T12:54:04.941Z,99.90
2023-05-05T12:56:39.702Z,99.90
2023-05-05T12:59:11.944Z,99.90
2023-05-05T13:01:50.631Z,99.90
2023-05-05T13:04:23.172Z,99.90
2023-05-05T13:07:10.278Z,99.90
2023-05-05T13:09:42.514Z,99.90
2023-05-05T13:12:17.402Z,99.90
2023-05-05T13:14:49.128Z,99.90
2023-05-05T13:17:20.900Z,99.90
2023-05-05T13:19:52.719Z,99.90
2023-05-05T13:22:24.443Z,99.90
2023-05-05T13:24:56.216Z,99.90
2023-05-05T13:27:29.322Z,99.90
2023-05-05T13:30:00.997Z,99.90
2023-05-05T13:32:32.760Z,99.90
2023-05-05T13:35:05.195Z,99.90
2023-05-05T13:37:37.016Z,99.90
2023-05-05T13:40:10.162Z,99.90
2023-05-05T13:42:43.286Z,99.90
2023-05-05T13:45:15.086Z,99.90
2023-05-05T13:47:46.835Z,99.90
2023-05-05T13:50:18.595Z,99.90
2023-05-05T13:52:50.276Z,99.90
2023-05-05T13:55:21.955Z,99.90
2023-05-05T13:57:55.069Z,99.90
2023-05-05T14:00:26.743Z,99.90
2023-05-05T14:02:58.482Z,99.90
2023-05-05T14:05:30.154Z,99.90
2023-05-05T14:08:01.855Z,99.90
2023-05-05T14:10:33.552Z,99.90
2023-05-05T14:13:06.613Z,99.90
2023-05-05T14:15:38.326Z,99.90
2023-05-05T14:18:10.079Z,99.90
2023-05-05T14:20:41.823Z,99.90
2023-05-05T14:23:13.583Z,99.90
2023-05-05T14:25:45.293Z,99.90
2023-05-05T14:28:18.440Z,99.90
2023-05-05T14:30:50.177Z,99.90
2023-05-05T14:33:21.834Z,99.90
2023-05-05T14:35:53.593Z,99.90
2023-05-05T14:38:25.407Z,99.90
2023-05-05T14:40:57.186Z,99.90
2023-05-05T14:43:30.220Z,99.90
2023-05-05T14:46:01.944Z,99.90
2023-05-05T14:48:33.664Z,99.90
2023-05-05T14:51:05.429Z,99.90
2023-05-05T14:53:37.175Z,99.90
2023-05-05T14:56:08.866Z,99.90
2023-05-05T14:58:41.933Z,99.90
2023-05-05T15:01:13.601Z,99.90
2023-05-05T15:03:45.397Z,99.90
2023-05-05T15:06:17.166Z,99.90
2023-05-05T15:08:48.904Z,99.90
2023-05-05T15:11:20.582Z,99.90
2023-05-05T15:13:53.583Z,99.90
2023-05-05T15:16:25.259Z,99.90
2023-05-05T15:18:56.984Z,99.90
2023-05-05T15:21:28.678Z,99.90
2023-05-05T15:24:00.330Z,99.90
2023-05-05T15:26:31.979Z,99.90
2023-05-05T15:29:05.048Z,99.90
2023-05-05T15:31:37.880Z,99.90
2023-05-05T15:34:09.561Z,99.90
2023-05-05T15:36:41.255Z,99.90
2023-05-05T15:39:12.913Z,99.90
2023-05-05T15:41:44.588Z,99.90
2023-05-05T15:44:17.602Z,99.90
2023-05-05T15:46:50.475Z,99.90
2023-05-05T15:49:22.379Z,99.90
2023-05-05T15:51:54.115Z,99.90
2023-05-05T15:56:58.698Z,99.90
2023-05-05T15:59:31.726Z,99.90
2023-05-05T16:02:03.458Z,99.90
2023-05-05T16:04:35.212Z,99.90
2023-05-05T16:07:06.952Z,99.90
2023-05-05T16:09:38.749Z,99.90
2023-05-05T16:12:10.455Z,99.90
2023-05-05T16:14:43.464Z,99.90
2023-05-05T16:17:15.120Z,99.90
2023-05-05T16:19:46.845Z,99.90
2023-05-05T16:22:18.506Z,99.90
2023-05-05T16:24:50.158Z,99.90
2023-05-05T16:27:21.920Z,99.90
2023-05-05T16:29:54.922Z,99.90
2023-05-05T16:32:26.589Z,99.90
2023-05-05T16:34:58.292Z,99.90
2023-05-05T16:37:29.989Z,99.90
2023-05-05T16:40:01.732Z,99.90
2023-05-05T16:42:33.597Z,99.90
2023-05-05T16:45:08.405Z,99.90
2023-05-05T16:47:40.425Z,99.90
2023-05-05T16:50:12.138Z,99.90
2023-05-05T16:52:43.792Z,99.90
2023-05-05T16:55:15.483Z,99.90
2023-05-05T16:57:47.117Z,99.90
2023-05-05T17:00:20.380Z,99.90
2023-05-05T17:05:24.106Z,99.90
2023-05-05T17:07:55.770Z,99.90
2023-05-05T17:10:27.498Z,99.90
2023-05-05T17:12:59.280Z,99.90
2023-05-05T17:15:32.394Z,99.90
2023-05-05T17:18:04.555Z,99.90
2023-05-05T17:20:36.302Z,99.90
2023-05-05T17:23:07.986Z,99.90
2023-05-05T17:25:39.710Z,99.90
2023-05-05T17:28:11.372Z,99.90
2023-05-05T17:30:44.549Z,99.90
2023-05-05T17:33:16.213Z,99.90
2023-05-05T17:35:47.918Z,99.90
2023-05-05T17:38:19.597Z,99.90
2023-05-05T17:40:51.236Z,99.90
2023-05-05T17:43:23.056Z,99.90
2023-05-05T17:45:56.180Z,99.90
2023-05-05T17:48:27.875Z,99.90
2023-05-05T17:50:59.553Z,99.90
2023-05-05T17:53:31.240Z,99.90
2023-05-05T17:56:02.942Z,99.90
2023-05-05T17:58:34.623Z,99.90
2023-05-05T18:01:07.715Z,99.90
2023-05-05T18:03:40.863Z,99.90
2023-05-05T18:06:12.840Z,99.90
2023-05-05T18:08:44.786Z,99.90
2023-05-05T18:11:16.462Z,99.90
2023-05-05T18:13:48.149Z,99.90
2023-05-05T18:16:21.223Z,99.90
2023-05-05T18:21:25.526Z,99.90
2023-05-05T18:24:04.612Z,99.90
2023-05-05T18:26:43.518Z,99.90
2023-05-05T18:29:15.209Z,99.90
2023-05-05T18:31:50.610Z,99.90
2023-05-05T18:34:22.301Z,99.90
2023-05-05T18:39:26.128Z,99.90
2023-05-05T18:41:57.811Z,99.90
2023-05-05T18:44:29.484Z,99.90
2023-05-05T18:47:02.523Z,99.90
2023-05-05T18:49:34.269Z,99.90
2023-05-05T18:52:05.937Z,99.90
2023-05-05T18:54:37.945Z,99.90
2023-05-05T18:57:09.791Z,99.90
2023-05-05T18:59:41.476Z,99.90
2023-05-05T19:02:14.478Z,99.90
2023-05-05T19:04:46.176Z,99.90
2023-05-05T19:07:31.391Z,99.90
2023-05-05T19:10:06.894Z,99.90
2023-05-05T19:12:38.805Z,99.90
2023-05-05T19:15:11.093Z,99.90
2023-05-05T19:17:44.367Z,99.90
2023-05-05T19:20:16.134Z,99.90
2023-05-05T19:22:47.811Z,99.90
2023-05-05T19:25:19.615Z,99.90
2023-05-05T19:27:51.252Z,99.90
2023-05-05T19:30:22.960Z,99.90
2023-05-05T19:32:55.999Z,99.90
2023-05-05T19:35:27.686Z,99.90
2023-05-05T19:37:59.726Z,99.90
2023-05-05T19:40:31.404Z,99.90
2023-05-05T19:43:03.109Z,99.90
2023-05-05T19:45:34.938Z,99.90
2023-05-05T19:48:08.052Z,99.90
2023-05-05T19:50:39.728Z,99.90
2023-05-05T19:53:11.643Z,99.90
2023-05-05T19:55:43.337Z,99.90
2023-05-05T19:58:15.030Z,99.90
2023-05-05T20:00:46.679Z,99.90
2023-05-05T20:03:19.764Z,99.90
2023-05-05T20:05:51.476Z,99.90
2023-05-05T20:08:23.175Z,99.90
2023-05-05T20:10:54.951Z,99.90
2023-05-05T20:13:26.673Z,99.90
2023-05-05T20:15:58.387Z,99.90
2023-05-05T20:18:31.483Z,99.90
2023-05-05T20:21:03.289Z,99.90
2023-05-05T20:23:35.994Z,99.90
2023-05-05T20:26:07.690Z,99.90
2023-05-05T20:28:40.809Z,99.90
2023-05-05T20:31:14.025Z,99.90
2023-05-05T20:33:47.064Z,99.90
2023-05-05T20:36:18.819Z,99.90
2023-05-05T20:38:50.482Z,99.90
2023-05-05T20:41:22.205Z,99.90
2023-05-05T20:43:53.852Z,99.90
2023-05-05T20:46:25.659Z,99.90
2023-05-05T20:48:58.806Z,99.90
2023-05-05T20:51:30.534Z,99.90
2023-05-05T20:54:02.594Z,99.90
2023-05-05T20:56:34.271Z,99.90
2023-05-05T20:59:05.941Z,99.90
2023-05-05T21:01:37.629Z,99.90
2023-05-05T21:04:10.716Z,99.90
2023-05-05T21:06:42.376Z,99.90
2023-05-05T21:09:14.053Z,99.90
2023-05-05T21:11:45.762Z,99.90
2023-05-05T21:14:17.496Z,99.90
2023-05-05T21:16:49.283Z,99.90
2023-05-05T21:19:22.367Z,99.90
2023-05-05T21:21:54.082Z,99.90
2023-05-05T21:24:25.924Z,99.90
2023-05-05T21:26:57.673Z,99.90
2023-05-05T21:29:29.402Z,99.90
2023-05-05T21:32:01.265Z,99.90
2023-05-05T21:34:34.329Z,99.90
2023-05-05T21:37:06.076Z,99.90
2023-05-05T21:39:37.823Z,99.90
2023-05-05T21:42:09.558Z,99.90
2023-05-05T21:44:41.295Z,99.90
2023-05-05T21:47:12.992Z,99.90
2023-05-05T21:49:46.083Z,99.90
2023-05-05T21:52:17.724Z,99.90
2023-05-05T21:54:49.547Z,99.90
2023-05-05T21:57:21.199Z,99.90
2023-05-05T21:59:52.910Z,99.90
